createdAt,value
2018-05-27T00:02:23.328Z,17.62
2018-05-27T00:04:51.650Z,17.58
2018-05-27T00:07:20.064Z,17.49
2018-05-27T00:09:48.407Z,17.47
2018-05-27T00:12:16.737Z,17.43
2018-05-27T00:14:45.097Z,17.60
2018-05-27T00:17:13.473Z,17.68
2018-05-27T00:19:41.795Z,17.66
2018-05-27T00:22:10.135Z,17.57
2018-05-27T00:24:38.449Z,17.54
2018-05-27T00:27:06.810Z,17.49
2018-05-27T00:29:35.175Z,17.44
2018-05-27T00:32:04.362Z,17.36
2018-05-27T00:34:32.717Z,17.25
2018-05-27T00:37:01.792Z,17.16
2018-05-27T00:39:30.167Z,17.09
2018-05-27T00:41:58.539Z,17.08
2018-05-27T00:44:26.896Z,17.00
2018-05-27T00:46:55.221Z,17.05
2018-05-27T00:49:24.364Z,17.08
2018-05-27T00:51:53.569Z,17.01
2018-05-27T00:54:21.964Z,16.94
2018-05-27T00:56:50.332Z,16.93
2018-05-27T00:59:18.668Z,16.82
2018-05-27T01:01:47.050Z,16.79
2018-05-27T01:04:15.384Z,16.83
2018-05-27T01:06:43.754Z,16.87
2018-05-27T01:09:12.104Z,16.82
2018-05-27T01:11:40.469Z,16.72
2018-05-27T01:14:08.804Z,16.71
2018-05-27T01:16:37.170Z,16.75
2018-05-27T01:19:05.493Z,16.72
2018-05-27T01:21:33.820Z,16.81
2018-05-27T01:24:02.200Z,16.79
2018-05-27T01:26:30.527Z,16.81
2018-05-27T01:28:58.844Z,16.71
2018-05-27T01:31:27.202Z,16.73
2018-05-27T01:33:55.923Z,16.75
2018-05-27T01:36:24.292Z,16.70
2018-05-27T01:38:52.599Z,16.63
2018-05-27T01:41:21.721Z,16.49
2018-05-27T01:43:50.085Z,16.37
2018-05-27T01:46:19.196Z,16.09
2018-05-27T01:48:47.576Z,16.15
2018-05-27T01:51:16.678Z,16.29
2018-05-27T01:53:45.055Z,16.32
2018-05-27T01:56:13.792Z,16.21
2018-05-27T01:58:42.123Z,16.12
2018-05-27T02:01:10.484Z,16.07
2018-05-27T02:03:38.847Z,16.05
2018-05-27T02:06:07.987Z,15.96
2018-05-27T02:08:36.327Z,15.89
2018-05-27T02:11:05.111Z,15.87
2018-05-27T02:13:33.426Z,15.83
2018-05-27T02:16:01.742Z,15.72
2018-05-27T02:18:30.083Z,15.68
2018-05-27T02:20:58.404Z,15.63
2018-05-27T02:23:26.771Z,15.58
2018-05-27T02:25:55.120Z,15.57
2018-05-27T02:28:23.496Z,15.65
2018-05-27T02:30:51.827Z,15.57
2018-05-27T02:33:20.188Z,15.60
2018-05-27T02:35:48.545Z,15.58
2018-05-27T02:38:16.960Z,15.44
2018-05-27T02:40:46.047Z,15.30
2018-05-27T02:43:15.176Z,15.35
2018-05-27T02:45:43.548Z,15.51
2018-05-27T02:48:11.896Z,15.52
2018-05-27T02:50:40.266Z,15.62
2018-05-27T02:53:08.633Z,15.81
2018-05-27T02:55:37.002Z,15.92
2018-05-27T02:58:05.336Z,16.02
2018-05-27T03:00:35.223Z,16.00
2018-05-27T03:03:04.314Z,15.92
2018-05-27T03:05:32.688Z,15.94
2018-05-27T03:08:01.040Z,16.01
2018-05-27T03:10:29.398Z,15.99
2018-05-27T03:12:57.750Z,15.95
2018-05-27T03:15:26.118Z,15.82
2018-05-27T03:17:55.248Z,15.81
2018-05-27T03:20:23.577Z,15.76
2018-05-27T03:22:52.712Z,15.76
2018-05-27T03:25:21.067Z,15.86
2018-05-27T03:27:50.219Z,15.88
2018-05-27T03:30:18.605Z,15.88
2018-05-27T03:32:46.930Z,15.97
2018-05-27T03:35:15.304Z,16.01
2018-05-27T03:37:43.652Z,16.00
2018-05-27T03:40:12.031Z,16.03
2018-05-27T03:42:40.383Z,16.12
2018-05-27T03:45:08.759Z,16.11
2018-05-27T03:47:37.091Z,16.08
2018-05-27T03:50:05.455Z,16.07
2018-05-27T03:52:34.243Z,16.06
2018-05-27T03:55:02.591Z,16.07
2018-05-27T03:57:30.960Z,16.13
2018-05-27T04:00:00.978Z,16.14
2018-05-27T04:02:29.329Z,16.17
2018-05-27T04:05:15.512Z,16.25
2018-05-27T04:08:01.538Z,16.34
2018-05-27T04:10:29.870Z,16.40
2018-05-27T04:12:58.989Z,16.59
2018-05-27T04:15:27.325Z,16.70
2018-05-27T04:17:56.447Z,16.78
2018-05-27T04:20:24.773Z,16.90
2018-05-27T04:22:53.094Z,17.06
2018-05-27T04:25:21.461Z,17.13
2018-05-27T04:27:50.567Z,17.23
2018-05-27T04:30:18.891Z,17.30
2018-05-27T04:32:47.261Z,17.42
2018-05-27T04:35:15.611Z,17.52
2018-05-27T04:37:43.985Z,17.57
2018-05-27T04:40:12.345Z,17.71
2018-05-27T04:42:41.493Z,17.84
2018-05-27T04:45:09.817Z,17.93
2018-05-27T04:47:38.967Z,18.02
2018-05-27T04:50:07.322Z,18.11
2018-05-27T04:52:35.658Z,18.18
2018-05-27T04:55:04.811Z,18.32
2018-05-27T04:57:33.146Z,18.35
2018-05-27T05:00:02.307Z,18.34
2018-05-27T05:02:30.639Z,18.42
2018-05-27T05:04:58.974Z,18.52
2018-05-27T05:07:27.358Z,18.58
2018-05-27T05:09:55.715Z,18.67
2018-05-27T05:12:24.882Z,18.71
2018-05-27T05:14:53.268Z,18.80
2018-05-27T05:17:21.622Z,18.84
2018-05-27T05:19:49.975Z,19.10
2018-05-27T05:22:19.118Z,19.33
2018-05-27T05:24:47.482Z,19.41
2018-05-27T05:27:15.836Z,19.54
2018-05-27T05:29:44.990Z,19.80
2018-05-27T05:32:13.339Z,20.00
2018-05-27T05:34:41.707Z,20.15
2018-05-27T05:37:10.043Z,20.22
2018-05-27T05:39:38.426Z,20.38
2018-05-27T05:42:06.762Z,20.41
2018-05-27T05:44:35.132Z,20.43
2018-05-27T05:47:03.457Z,20.43
2018-05-27T05:49:31.821Z,20.51
2018-05-27T05:52:00.188Z,20.60
2018-05-27T05:54:28.542Z,20.63
2018-05-27T05:56:56.918Z,20.61
2018-05-27T05:59:25.276Z,20.52
2018-05-27T06:01:53.597Z,20.68
2018-05-27T06:04:21.964Z,20.83
2018-05-27T06:06:50.307Z,20.86
2018-05-27T06:09:18.625Z,20.87
2018-05-27T06:11:47.043Z,20.72
2018-05-27T06:14:16.238Z,20.48
2018-05-27T06:16:45.340Z,20.64
2018-05-27T06:19:14.511Z,20.74
2018-05-27T06:21:42.886Z,20.84
2018-05-27T06:24:11.245Z,20.81
2018-05-27T06:26:39.619Z,20.65
2018-05-27T06:29:07.995Z,20.82
2018-05-27T06:31:36.368Z,20.97
2018-05-27T06:34:04.732Z,20.92
2018-05-27T06:36:33.206Z,21.03
2018-05-27T06:39:01.675Z,21.23
2018-05-27T06:41:30.064Z,21.41
2018-05-27T06:43:58.400Z,21.73
2018-05-27T06:46:26.772Z,21.60
2018-05-27T06:48:55.170Z,21.55
2018-05-27T06:51:24.323Z,21.47
2018-05-27T06:53:52.755Z,21.56
2018-05-27T06:56:21.908Z,21.62
2018-05-27T06:58:50.276Z,21.50
2018-05-27T07:01:18.653Z,21.74
2018-05-27T07:03:47.014Z,21.92
2018-05-27T07:06:16.090Z,22.09
2018-05-27T07:08:44.552Z,22.28
2018-05-27T07:11:12.885Z,22.30
2018-05-27T07:13:41.454Z,22.45
2018-05-27T07:16:13.053Z,22.47
2018-05-27T07:18:42.483Z,22.61
2018-05-27T07:21:10.981Z,22.68
2018-05-27T07:23:43.670Z,22.76
2018-05-27T07:29:01.094Z,22.87
2018-05-27T07:31:29.582Z,22.96
2018-05-27T07:34:12.949Z,22.97
2018-05-27T07:39:52.383Z,22.95
2018-05-27T07:42:21.965Z,22.97
2018-05-27T07:44:50.418Z,23.14
2018-05-27T07:47:19.597Z,23.37
2018-05-27T07:49:47.963Z,23.53
2018-05-27T07:52:16.513Z,23.57
2018-05-27T07:54:44.885Z,23.58
2018-05-27T07:57:13.225Z,23.71
2018-05-27T07:59:41.637Z,23.76
2018-05-27T08:02:10.007Z,23.68
2018-05-27T08:04:38.320Z,23.85
2018-05-27T08:07:06.718Z,24.00
2018-05-27T08:09:35.218Z,24.13
2018-05-27T08:12:03.924Z,24.04
2018-05-27T08:14:33.329Z,24.17
2018-05-27T08:17:02.615Z,24.29
2018-05-27T08:19:33.113Z,24.37
2018-05-27T08:22:01.830Z,24.52
2018-05-27T08:24:31.345Z,24.53
2018-05-27T08:27:00.494Z,24.57
2018-05-27T08:29:28.884Z,24.66
2018-05-27T08:31:57.772Z,24.74
2018-05-27T08:34:26.239Z,24.92
2018-05-27T08:36:55.915Z,24.96
2018-05-27T08:39:26.670Z,25.05
2018-05-27T08:41:56.041Z,25.29
2018-05-27T08:44:27.555Z,25.59
2018-05-27T08:46:55.963Z,25.55
2018-05-27T08:49:26.833Z,25.65
2018-05-27T08:51:55.733Z,26.21
2018-05-27T08:54:25.230Z,26.12
2018-05-27T08:56:53.573Z,26.26
2018-05-27T08:59:22.746Z,26.35
2018-05-27T09:01:51.115Z,26.15
2018-05-27T09:04:19.448Z,25.77
2018-05-27T09:06:47.791Z,25.76
2018-05-27T09:09:17.185Z,25.85
2018-05-27T09:11:46.353Z,26.01
2018-05-27T09:14:14.683Z,26.09
2018-05-27T09:16:43.121Z,26.05
2018-05-27T09:19:11.823Z,26.13
2018-05-27T09:21:40.981Z,26.40
2018-05-27T09:24:10.479Z,26.58
2018-05-27T09:26:38.827Z,26.62
2018-05-27T09:29:07.952Z,26.67
2018-05-27T09:31:36.329Z,26.76
2018-05-27T09:34:04.682Z,26.89
2018-05-27T09:36:33.099Z,26.83
2018-05-27T09:39:01.469Z,26.90
2018-05-27T09:41:29.845Z,27.03
2018-05-27T09:43:58.216Z,27.45
2018-05-27T09:46:26.712Z,27.59
2018-05-27T09:48:55.059Z,27.93
2018-05-27T09:51:23.409Z,28.11
2018-05-27T09:53:52.569Z,28.24
2018-05-27T09:56:20.936Z,28.14
2018-05-27T09:58:57.968Z,28.17
2018-05-27T10:01:34.255Z,28.85
2018-05-27T10:04:07.800Z,29.05
2018-05-27T10:06:43.696Z,28.84
2018-05-27T10:09:19.288Z,29.78
2018-05-27T10:11:47.963Z,30.55
2018-05-27T10:14:16.325Z,30.68
2018-05-27T10:16:44.660Z,29.91
2018-05-27T10:19:13.026Z,30.24
2018-05-27T10:21:41.400Z,30.66
2018-05-27T10:24:09.745Z,30.79
2018-05-27T10:26:38.075Z,30.73
2018-05-27T10:29:06.435Z,30.46
2018-05-27T10:31:34.828Z,30.91
2018-05-27T10:34:03.235Z,31.35
2018-05-27T10:36:33.784Z,31.81
2018-05-27T10:39:06.666Z,32.22
2018-05-27T10:41:38.901Z,32.07
2018-05-27T10:44:09.893Z,31.73
2018-05-27T10:46:40.006Z,30.94
2018-05-27T10:49:08.405Z,30.89
2018-05-27T10:51:36.745Z,30.24
2018-05-27T10:54:05.068Z,30.09
2018-05-27T10:56:33.430Z,30.85
2018-05-27T10:59:01.773Z,30.73
2018-05-27T11:01:30.140Z,30.37
2018-05-27T11:03:59.436Z,30.16
2018-05-27T11:06:27.828Z,29.79
2018-05-27T11:08:56.163Z,29.90
2018-05-27T11:11:24.529Z,30.14
2018-05-27T11:13:52.862Z,29.82
2018-05-27T11:16:21.243Z,29.44
2018-05-27T11:18:49.581Z,29.16
2018-05-27T11:21:18.430Z,29.06
2018-05-27T11:23:46.758Z,28.98
2018-05-27T11:26:15.968Z,28.86
2018-05-27T11:28:44.334Z,28.77
2018-05-27T11:31:13.802Z,28.90
2018-05-27T11:33:42.201Z,29.20
2018-05-27T11:36:10.607Z,29.40
2018-05-27T11:38:38.966Z,29.59
2018-05-27T11:41:07.318Z,29.61
2018-05-27T11:43:35.707Z,29.69
2018-05-27T11:46:04.082Z,29.45
2018-05-27T11:48:32.532Z,29.47
2018-05-27T11:51:00.859Z,29.42
2018-05-27T11:53:29.224Z,29.41
2018-05-27T11:55:57.597Z,29.64
2018-05-27T11:58:25.952Z,29.80
2018-05-27T12:00:55.132Z,29.68
2018-05-27T12:03:23.505Z,29.96
2018-05-27T12:05:51.859Z,30.09
2018-05-27T12:08:21.002Z,30.54
2018-05-27T12:10:49.333Z,31.27
2018-05-27T12:13:18.481Z,31.19
2018-05-27T12:15:46.799Z,32.11
2018-05-27T12:18:15.926Z,32.46
2018-05-27T12:20:44.266Z,31.82
2018-05-27T12:23:13.411Z,31.75
2018-05-27T12:25:41.782Z,31.90
2018-05-27T12:28:10.173Z,32.12
2018-05-27T12:30:38.496Z,32.16
2018-05-27T12:33:06.827Z,32.08
2018-05-27T12:35:35.191Z,32.31
2018-05-27T12:38:03.539Z,32.37
2018-05-27T12:40:32.685Z,32.50
2018-05-27T12:43:01.075Z,31.60
2018-05-27T12:45:29.451Z,30.85
2018-05-27T12:47:57.802Z,30.89
2018-05-27T12:50:26.125Z,30.91
2018-05-27T12:52:54.524Z,30.90
2018-05-27T12:55:22.869Z,30.80
2018-05-27T12:57:51.222Z,30.43
2018-05-27T13:00:19.559Z,30.27
2018-05-27T13:02:48.779Z,30.20
2018-05-27T13:05:17.171Z,29.49
2018-05-27T13:07:45.543Z,29.25
2018-05-27T13:10:13.955Z,28.97
2018-05-27T13:12:42.477Z,28.87
2018-05-27T13:15:10.882Z,28.92
2018-05-27T13:17:39.301Z,28.84
2018-05-27T13:20:08.399Z,28.98
2018-05-27T13:22:36.791Z,28.70
2018-05-27T13:25:05.223Z,28.31
2018-05-27T13:27:33.619Z,28.36
2018-05-27T13:30:01.957Z,28.42
2018-05-27T13:32:30.339Z,28.65
2018-05-27T13:34:58.729Z,28.75
2018-05-27T13:37:27.117Z,28.73
2018-05-27T13:39:55.490Z,28.54
2018-05-27T13:42:23.873Z,28.49
2018-05-27T13:44:52.231Z,28.61
2018-05-27T13:47:20.613Z,28.63
2018-05-27T13:49:48.944Z,28.42
2018-05-27T13:52:17.329Z,28.44
2018-05-27T13:54:45.711Z,28.61
2018-05-27T13:57:14.853Z,28.53
2018-05-27T13:59:43.238Z,28.77
2018-05-27T14:02:11.615Z,28.69
2018-05-27T14:04:40.764Z,28.71
2018-05-27T14:07:10.008Z,28.83
2018-05-27T14:09:39.431Z,28.76
2018-05-27T14:12:08.198Z,28.77
2018-05-27T14:14:36.551Z,28.60
2018-05-27T14:17:04.935Z,28.75
2018-05-27T14:19:33.261Z,28.67
2018-05-27T14:22:01.693Z,28.59
2018-05-27T14:24:30.025Z,28.89
2018-05-27T14:26:58.462Z,29.47
2018-05-27T14:29:26.789Z,29.88
2018-05-27T14:31:55.129Z,29.87
2018-05-27T14:34:23.511Z,30.35
2018-05-27T14:36:51.869Z,30.39
2018-05-27T14:39:20.223Z,29.92
2018-05-27T14:41:48.590Z,29.52
2018-05-27T14:44:17.726Z,29.38
2018-05-27T14:46:46.342Z,29.26
2018-05-27T14:49:14.667Z,28.96
2018-05-27T14:51:43.042Z,29.12
2018-05-27T14:54:11.362Z,29.03
2018-05-27T14:56:39.709Z,29.03
2018-05-27T14:59:08.031Z,28.78
2018-05-27T15:01:36.384Z,28.76
2018-05-27T15:04:04.778Z,29.02
2018-05-27T15:06:33.155Z,29.09
2018-05-27T15:09:01.494Z,28.90
2018-05-27T15:11:29.885Z,29.11
2018-05-27T15:13:58.274Z,28.97
2018-05-27T15:16:26.617Z,28.78
2018-05-27T15:18:54.983Z,28.26
2018-05-27T15:21:23.318Z,28.32
2018-05-27T15:23:51.646Z,28.18
2018-05-27T15:26:20.407Z,28.57
2018-05-27T15:28:48.746Z,28.61
2018-05-27T15:31:17.126Z,28.97
2018-05-27T15:33:45.452Z,29.32
2018-05-27T15:36:14.525Z,29.35
2018-05-27T15:38:42.904Z,29.45
2018-05-27T15:41:11.241Z,29.46
2018-05-27T15:43:39.620Z,28.93
2018-05-27T15:46:07.984Z,28.53
2018-05-27T15:48:36.363Z,28.59
2018-05-27T15:51:04.693Z,28.64
2018-05-27T15:53:33.040Z,28.56
2018-05-27T15:56:01.428Z,28.43
2018-05-27T15:58:29.776Z,28.46
2018-05-27T16:00:58.137Z,28.72
2018-05-27T16:03:26.504Z,28.77
2018-05-27T16:05:55.641Z,28.64
2018-05-27T16:08:23.989Z,28.30
2018-05-27T16:10:53.806Z,28.07
2018-05-27T16:13:22.272Z,28.52
2018-05-27T16:15:51.434Z,28.55
2018-05-27T16:18:19.769Z,28.85
2018-05-27T16:20:48.162Z,28.89
2018-05-27T16:23:16.505Z,28.83
2018-05-27T16:25:44.880Z,28.75
2018-05-27T16:28:13.307Z,28.49
2018-05-27T16:30:41.714Z,28.69
2018-05-27T16:33:10.094Z,28.49
2018-05-27T16:35:38.469Z,28.63
2018-05-27T16:38:06.853Z,29.00
2018-05-27T16:40:35.223Z,29.01
2018-05-27T16:43:03.597Z,28.73
2018-05-27T16:45:32.559Z,28.61
2018-05-27T16:48:00.955Z,28.93
2018-05-27T16:50:29.346Z,29.16
2018-05-27T16:52:57.694Z,29.33
2018-05-27T16:55:26.099Z,29.28
2018-05-27T16:57:54.493Z,29.47
2018-05-27T17:00:22.846Z,29.60
2018-05-27T17:02:51.205Z,29.73
2018-05-27T17:05:19.543Z,29.83
2018-05-27T17:07:48.675Z,29.66
2018-05-27T17:10:17.030Z,29.62
2018-05-27T17:12:45.409Z,29.21
2018-05-27T17:15:13.725Z,29.36
2018-05-27T17:17:42.109Z,29.21
2018-05-27T17:20:10.545Z,29.18
2018-05-27T17:22:38.934Z,29.32
2018-05-27T17:25:07.316Z,29.56
2018-05-27T17:27:35.709Z,29.62
2018-05-27T17:30:04.079Z,29.76
2018-05-27T17:32:32.445Z,29.63
2018-05-27T17:35:00.820Z,29.73
2018-05-27T17:37:29.178Z,29.55
2018-05-27T17:39:58.365Z,29.23
2018-05-27T17:42:26.708Z,28.85
2018-05-27T17:44:55.088Z,28.75
2018-05-27T17:47:23.507Z,28.57
2018-05-27T17:49:51.927Z,28.27
2018-05-27T17:52:20.251Z,28.22
2018-05-27T17:54:48.597Z,28.21
2018-05-27T17:57:17.019Z,28.44
2018-05-27T17:59:46.178Z,28.52
2018-05-27T18:02:14.562Z,28.44
2018-05-27T18:04:42.892Z,28.58
2018-05-27T18:07:12.133Z,28.47
2018-05-27T18:09:40.498Z,27.83
2018-05-27T18:12:08.810Z,27.62
2018-05-27T18:14:37.175Z,27.25
2018-05-27T18:17:05.913Z,26.78
2018-05-27T18:19:34.336Z,26.45
2018-05-27T18:22:02.651Z,26.07
2018-05-27T18:24:31.793Z,25.91
2018-05-27T18:27:00.961Z,25.72
2018-05-27T18:29:29.317Z,25.42
2018-05-27T18:31:58.421Z,25.25
2018-05-27T18:34:27.559Z,25.12
2018-05-27T18:36:55.931Z,25.05
2018-05-27T18:39:24.285Z,25.09
2018-05-27T18:41:52.654Z,25.09
2018-05-27T18:44:21.697Z,25.03
2018-05-27T18:46:50.068Z,24.93
2018-05-27T18:49:19.287Z,24.83
2018-05-27T18:51:47.661Z,24.63
2018-05-27T18:54:16.020Z,24.43
2018-05-27T18:56:44.496Z,24.31
2018-05-27T18:59:12.850Z,24.28
2018-05-27T19:01:42.522Z,24.11
2018-05-27T19:04:11.738Z,23.94
2018-05-27T19:06:40.722Z,23.72
2018-05-27T19:09:09.866Z,23.57
2018-05-27T19:11:38.369Z,23.41
2018-05-27T19:14:06.803Z,23.30
2018-05-27T19:16:35.661Z,23.37
2018-05-27T19:19:05.997Z,23.35
2018-05-27T19:21:36.163Z,23.47
2018-05-27T19:24:04.718Z,23.37
2018-05-27T19:26:33.162Z,23.32
2018-05-27T19:29:01.597Z,23.03
2018-05-27T19:31:30.152Z,23.25
2018-05-27T19:33:58.659Z,23.38
2018-05-27T19:36:27.235Z,23.48
2018-05-27T19:38:55.716Z,23.43
2018-05-27T19:41:24.128Z,23.33
2018-05-27T19:43:54.612Z,23.37
2018-05-27T19:46:22.988Z,23.29
2018-05-27T19:48:51.851Z,23.30
2018-05-27T19:51:20.281Z,23.27
2018-05-27T19:53:48.696Z,23.26
2018-05-27T19:56:17.187Z,23.28
2018-05-27T19:58:47.115Z,23.08
2018-05-27T20:01:16.368Z,22.82
2018-05-27T20:03:44.787Z,22.75
2018-05-27T20:06:13.156Z,22.71
2018-05-27T20:08:41.529Z,22.67
2018-05-27T20:11:10.297Z,22.53
2018-05-27T20:13:39.570Z,22.61
2018-05-27T20:16:07.935Z,22.65
2018-05-27T20:18:36.312Z,22.56
2018-05-27T20:21:04.674Z,22.66
2018-05-27T20:23:33.809Z,22.68
2018-05-27T20:26:02.189Z,22.46
2018-05-27T20:28:30.557Z,22.30
2018-05-27T20:30:58.891Z,22.39
2018-05-27T20:33:28.024Z,22.38
2018-05-27T20:35:56.398Z,22.56
2018-05-27T20:38:24.784Z,22.32
2018-05-27T20:40:53.158Z,22.05
2018-05-27T20:43:21.542Z,22.05
2018-05-27T20:45:49.903Z,22.04
2018-05-27T20:48:18.246Z,22.18
2018-05-27T20:50:46.675Z,22.19
2018-05-27T20:53:15.064Z,22.20
2018-05-27T20:55:43.437Z,22.35
2018-05-27T20:58:11.819Z,22.09
2018-05-27T21:00:40.188Z,21.96
2018-05-27T21:03:08.541Z,21.87
2018-05-27T21:05:37.665Z,21.72
2018-05-27T21:08:06.030Z,21.74
2018-05-27T21:10:34.738Z,21.57
2018-05-27T21:13:03.121Z,21.70
2018-05-27T21:15:31.499Z,21.76
2018-05-27T21:17:59.868Z,21.72
2018-05-27T21:20:28.225Z,21.76
2018-05-27T21:22:56.568Z,21.63
2018-05-27T21:25:24.942Z,21.61
2018-05-27T21:27:53.273Z,21.37
2018-05-27T21:30:22.572Z,21.21
2018-05-27T21:32:51.695Z,21.18
2018-05-27T21:35:20.565Z,21.27
2018-05-27T21:37:48.895Z,21.21
2018-05-27T21:40:18.738Z,21.23
2018-05-27T21:42:47.107Z,21.13
2018-05-27T21:45:15.487Z,21.25
2018-05-27T21:47:43.882Z,21.19
2018-05-27T21:50:12.362Z,20.89
2018-05-27T21:52:40.730Z,20.84
2018-05-27T21:55:09.102Z,20.98
2018-05-27T21:57:37.474Z,20.99
2018-05-27T22:00:06.567Z,20.91
2018-05-27T22:02:34.930Z,20.85
2018-05-27T22:05:04.079Z,20.76
2018-05-27T22:07:32.462Z,20.63
2018-05-27T22:10:01.617Z,20.62
2018-05-27T22:12:30.006Z,20.54
2018-05-27T22:14:58.345Z,20.58
2018-05-27T22:17:26.709Z,20.65
2018-05-27T22:19:55.021Z,20.64
2018-05-27T22:22:24.160Z,20.64
2018-05-27T22:24:52.479Z,20.67
2018-05-27T22:27:21.568Z,20.54
2018-05-27T22:29:49.965Z,20.48
2018-05-27T22:32:19.114Z,20.37
2018-05-27T22:34:47.441Z,20.18
2018-05-27T22:37:16.590Z,20.27
2018-05-27T22:39:44.958Z,20.17
2018-05-27T22:42:13.283Z,20.18
2018-05-27T22:44:42.423Z,20.03
2018-05-27T22:47:10.814Z,19.97
2018-05-27T22:49:39.125Z,20.07
2018-05-27T22:52:07.538Z,19.86
2018-05-27T22:54:35.853Z,19.74
2018-05-27T22:57:04.212Z,19.68
2018-05-27T22:59:32.574Z,19.72
2018-05-27T23:02:00.923Z,19.61
2018-05-27T23:04:30.062Z,19.58
2018-05-27T23:06:58.388Z,19.68
2018-05-27T23:09:26.742Z,19.70
2018-05-27T23:11:55.123Z,19.66
2018-05-27T23:14:23.451Z,19.53
2018-05-27T23:16:51.819Z,19.62
2018-05-27T23:19:21.334Z,19.48
2018-05-27T23:21:49.661Z,19.41
2018-05-27T23:24:18.035Z,19.46
2018-05-27T23:26:46.353Z,19.40
2018-05-27T23:29:15.487Z,19.44
2018-05-27T23:31:43.856Z,19.37
2018-05-27T23:34:12.190Z,19.37
2018-05-27T23:36:41.332Z,19.36
2018-05-27T23:39:09.684Z,19.15
2018-05-27T23:41:38.075Z,19.15
2018-05-27T23:44:06.392Z,19.01
2018-05-27T23:46:34.744Z,19.08
2018-05-27T23:49:03.133Z,19.04
2018-05-27T23:51:31.526Z,18.92
2018-05-27T23:53:59.865Z,18.79
2018-05-27T23:56:28.263Z,18.86
2018-05-27T23:58:56.633Z,18.85
